Time;durP1;ratioP1;P1;durP2;ratioP2;P2;SDS_P1;SDS_P2;PMS_P1;PMS_P2;Temp;Humidity;BMP_temperature;BMP_pressure;BME280_temperature;BME280_humidity;BME280_pressure;Samples;Min_cycle;Max_cycle;Signal;HPM_P1;HPM_P2
2022/02/10 00:17:02;;;;;;;8.38;3.53;;;;;;;0.18;84.27;98106.06;5077880;28;20063;-59
2022/02/10 00:19:44;;;;;;;9.23;3.50;;;;;;;0.25;85.72;98105.22;5070079;28;20098;-60
2022/02/10 00:35:46;;;;;;;8.35;3.17;;;;;;;0.55;83.99;98090.56;5065552;28;20059;-60
2022/02/10 00:38:13;;;;;;;6.13;2.95;;;;;;;0.69;83.06;98089.84;5065880;28;20051;-60
2022/02/10 00:40:39;;;;;;;5.75;2.63;;;;;;;1.09;81.34;98092.56;5065727;28;20044;-59
2022/02/10 00:43:06;;;;;;;6.43;2.55;;;;;;;1.43;79.72;98095.88;5065307;28;20041;-61
2022/02/10 00:45:35;;;;;;;5.57;2.95;;;;;;;1.58;78.71;98085.28;5068583;28;20571;-62
2022/02/10 00:48:06;;;;;;;5.55;2.70;;;;;;;1.60;78.72;98079.78;5084607;28;20055;-61
2022/02/10 00:50:34;;;;;;;5.82;2.63;;;;;;;1.77;77.49;98083.19;5080799;28;20553;-60
2022/02/10 00:53:11;;;;;;;5.05;2.70;;;;;;;1.81;77.60;98074.63;5089012;28;20051;-60
2022/02/10 00:55:41;;;;;;;4.80;2.25;;;;;;;1.74;77.58;98080.88;5069543;28;20518;-61
2022/02/10 00:58:11;;;;;;;5.97;2.35;;;;;;;1.66;78.13;98079.09;5080473;28;20043;-61
2022/02/10 01:14:07;;;;;;;4.90;2.97;;;;;;;0.98;80.08;98064.44;5071248;28;20036;-59
2022/02/10 01:30:15;;;;;;;5.65;2.33;;;;;;;1.53;77.88;98053.81;5068539;28;20047;-59
2022/02/10 01:32:44;;;;;;;5.80;2.92;;;;;;;1.63;77.20;98058.91;5070509;28;20044;-59
2022/02/10 01:35:17;;;;;;;3.65;1.83;;;;;;;1.85;76.44;98051.09;5068422;28;20916;-60
2022/02/10 01:37:44;;;;;;;7.45;2.80;;;;;;;1.93;76.13;98052.84;5067477;28;20090;-60
2022/02/10 01:40:20;;;;;;;5.30;2.10;;;;;;;1.81;75.79;98049.78;5067625;28;20044;-60
2022/02/10 02:04:31;;;;;;;6.18;2.65;;;;;;;1.12;78.75;98019.34;5064745;28;20052;-61
2022/02/10 02:06:58;;;;;;;9.55;3.05;;;;;;;1.13;78.56;98015.66;5069901;28;20040;-61
2022/02/10 02:09:25;;;;;;;6.55;2.47;;;;;;;1.15;78.75;98003.81;5067058;28;20047;-61
2022/02/10 02:11:55;;;;;;;6.55;2.58;;;;;;;1.25;78.19;98008.13;5081254;28;20032;-61
2022/02/10 02:14:24;;;;;;;7.40;2.47;;;;;;;1.32;78.14;98008.25;5087349;28;20606;-61
2022/02/10 02:17:03;;;;;;;5.97;2.50;;;;;;;1.31;78.12;98004.72;5083640;28;20043;-61
2022/02/10 02:19:32;;;;;;;7.28;2.25;;;;;;;1.35;77.78;98000.72;5078479;28;20066;-61
2022/02/10 02:21:59;;;;;;;6.88;2.70;;;;;;;1.37;77.58;97995.19;5085813;28;20040;-61
2022/02/10 02:24:26;;;;;;;5.13;2.33;;;;;;;1.34;77.73;97985.72;5078384;28;20036;-61
2022/02/10 02:26:55;;;;;;;4.90;2.22;;;;;;;1.34;77.94;97999.06;5067030;28;20071;-61
2022/02/10 02:29:45;;;;;;;7.20;2.20;;;;;;;1.31;78.00;97996.72;5086005;28;20731;-60
2022/02/10 02:32:21;;;;;;;4.28;2.47;;;;;;;1.29;77.82;97998.75;5075814;28;20524;-60
2022/02/10 03:04:54;;;;;;;6.07;2.20;;;;;;;2.18;72.71;97978.66;5078647;28;20525;-60
2022/02/10 03:10:05;;;;;;;4.55;2.15;;;;;;;2.25;72.73;97965.38;5067167;28;20525;-60
2022/02/10 03:12:31;;;;;;;4.88;1.98;;;;;;;2.27;72.21;97965.19;5065992;28;20535;-61
2022/02/10 03:15:01;;;;;;;5.20;1.90;;;;;;;2.23;72.31;97963.91;5070509;28;20055;-61
2022/02/10 03:20:24;;;;;;;6.75;2.20;;;;;;;2.10;73.21;97967.22;5083148;28;20040;-59
2022/02/10 04:04:16;;;;;;;4.32;2.30;;;;;;;1.84;73.59;97981.81;5065348;28;20573;-61
2022/02/10 04:12:46;;;;;;;5.78;2.58;;;;;;;1.76;73.72;97975.53;5032910;28;20075;-60
2022/02/10 04:18:17;;;;;;;5.20;2.53;;;;;;;1.56;74.62;97976.03;5065274;28;20060;-60
2022/02/10 04:23:13;;;;;;;3.65;1.52;;;;;;;1.71;73.95;97979.75;5073371;28;20040;-59
2022/02/10 04:58:26;;;;;;;4.45;1.92;;;;;;;1.81;73.66;97946.44;5065730;28;20040;-61
2022/02/10 05:34:44;;;;;;;8.77;3.67;;;;;;;-0.33;82.03;97931.41;5086348;28;20039;-61
2022/02/10 05:37:10;;;;;;;5.35;2.60;;;;;;;-0.24;82.80;97938.38;5073913;28;20076;-61
2022/02/10 05:39:42;;;;;;;8.82;3.20;;;;;;;-0.28;82.15;97937.03;5067775;28;20040;-61
2022/02/10 05:50:48;;;;;;;7.05;2.90;;;;;;;-0.18;81.93;97935.00;5078860;28;20098;-61
2022/02/10 05:56:04;;;;;;;5.93;2.65;;;;;;;0.15;80.63;97938.63;5070555;28;20052;-62
2022/02/10 05:58:51;;;;;;;6.72;2.80;;;;;;;0.22;80.13;97939.59;5067751;28;20060;-61
2022/02/10 06:01:53;;;;;;;6.68;2.78;;;;;;;-0.11;80.85;97940.50;5087980;28;20044;-61
2022/02/10 07:07:06;;;;;;;4.60;2.38;;;;;;;-0.27;83.43;97944.84;5079675;28;20063;-64
2022/02/10 07:43:18;;;;;;;5.10;2.58;;;;;;;-0.28;84.24;97931.72;5072428;28;20036;-63
2022/02/10 08:50:04;;;;;;;7.40;2.55;;;;;;;5.96;67.45;97959.09;5087829;28;20036;-68
2022/02/10 08:55:32;;;;;;;6.45;2.28;;;;;;;6.70;66.00;97955.47;5080167;28;20106;-67
2022/02/10 09:06:02;;;;;;;7.63;2.80;;;;;;;7.11;63.07;97960.69;5083561;28;20102;-66
2022/02/10 09:50:57;;;;;;;6.50;2.80;;;;;;;7.96;62.48;97971.31;5084643;28;20105;-66
2022/02/10 09:57:47;;;;;;;7.30;2.80;;;;;;;8.03;61.82;97975.59;5077101;28;20047;-66
2022/02/10 10:02:57;;;;;;;10.57;3.70;;;;;;;8.18;61.54;97974.44;5085854;28;20052;-66
2022/02/10 10:05:42;;;;;;;6.45;3.28;;;;;;;8.27;60.91;97977.69;5082555;28;20047;-68
2022/02/10 10:18:49;;;;;;;7.93;3.83;;;;;;;8.32;60.42;98002.13;5085157;28;20527;-66
2022/02/10 10:21:35;;;;;;;7.93;3.88;;;;;;;8.48;60.14;98008.00;5079338;28;20036;-63
2022/02/10 10:57:30;;;;;;;9.68;4.30;;;;;;;8.76;60.07;97999.44;5074132;28;20538;-65
2022/02/10 11:37:34;;;;;;;9.80;5.30;;;;;;;7.63;66.35;97984.00;5063481;28;20067;-66
2022/02/10 11:40:16;;;;;;;13.68;5.00;;;;;;;7.66;66.54;97984.38;5082429;28;20059;-65
2022/02/10 14:09:24;;;;;;;17.92;8.93;;;;;;;5.19;76.97;97984.41;5049933;28;20579;-67
2022/02/10 14:17:10;;;;;;;12.73;6.43;;;;;;;5.16;77.27;97984.81;5081646;28;20515;-67
2022/02/10 14:27:29;;;;;;;16.35;7.60;;;;;;;5.13;77.20;97985.22;5077264;28;20056;-63
2022/02/10 14:29:56;;;;;;;10.65;5.53;;;;;;;5.19;76.96;97986.25;5085879;28;20048;-63
2022/02/10 14:32:29;;;;;;;13.48;7.53;;;;;;;5.12;77.27;97994.28;5087174;28;20123;-65
2022/02/10 14:35:03;;;;;;;;;;;;;;;5.12;77.50;97983.53;5072777;28;20066;-65
2022/02/10 14:37:52;;;;;;;13.38;6.90;;;;;;;5.13;77.68;97984.38;5065162;28;20410;-66
2022/02/10 16:13:28;;;;;;;5.78;2.70;;;;;;;5.38;67.22;97968.53;5086465;28;20047;-66
2022/02/10 16:17:54;;;;;;;6.78;2.30;;;;;;;5.54;66.82;97961.13;5068861;28;20041;-67
2022/02/10 16:20:23;;;;;;;9.90;2.95;;;;;;;5.40;67.25;97965.66;5068077;28;20073;-66
2022/02/10 16:23:16;;;;;;;6.68;2.55;;;;;;;5.43;66.88;97967.94;5069584;28;20051;-64
2022/02/10 16:25:47;;;;;;;5.70;2.72;;;;;;;5.39;66.74;97972.06;5069444;28;20044;-66
2022/02/10 16:28:27;;;;;;;5.75;2.58;;;;;;;5.45;66.11;97969.38;5081061;28;20064;-69
2022/02/10 16:30:54;;;;;;;8.27;2.42;;;;;;;5.44;66.41;97964.22;5083073;28;20070;-67
2022/02/10 16:33:25;;;;;;;;;;;;;;;5.33;67.06;97963.78;5089417;28;20040;-66
2022/02/10 16:35:59;;;;;;;5.32;2.70;;;;;;;5.28;67.82;97963.59;5083278;28;20386;-63
2022/02/10 16:38:32;;;;;;;5.47;2.60;;;;;;;5.27;67.27;97964.59;5079631;28;20120;-66
2022/02/10 16:41:04;;;;;;;7.43;2.55;;;;;;;5.28;67.79;97949.31;5087129;28;20350;-64
2022/02/10 16:43:35;;;;;;;9.43;3.13;;;;;;;5.31;67.72;97940.88;5086444;28;20059;-65
2022/02/10 16:46:03;;;;;;;6.30;2.63;;;;;;;5.25;66.90;97957.78;5082501;28;20424;-65
2022/02/10 16:48:37;;;;;;;;;;;;;;;5.40;66.72;97950.38;5084198;28;20407;-65
2022/02/10 16:51:10;;;;;;;6.28;2.65;;;;;;;5.55;65.65;97952.03;5081185;28;20504;-64
2022/02/10 16:53:47;;;;;;;6.47;2.53;;;;;;;5.46;65.96;97951.41;5089381;28;20059;-67
2022/02/10 16:56:24;;;;;;;4.75;2.40;;;;;;;5.51;66.11;97951.63;5078513;28;20539;-68
2022/02/10 16:59:25;;;;;;;5.07;2.58;;;;;;;5.52;65.36;97955.13;5082298;28;20051;-66
2022/02/10 17:26:54;;;;;;;4.70;2.35;;;;;;;4.94;68.15;97959.97;5067299;28;20307;-65
2022/02/10 17:29:42;;;;;;;5.82;2.60;;;;;;;4.92;68.29;97962.84;5077025;28;20036;-67
2022/02/10 17:53:25;;;;;;;6.18;2.70;;;;;;;5.25;66.32;97955.09;5072461;28;20116;-62
2022/02/10 17:55:52;;;;;;;4.93;2.55;;;;;;;5.26;66.16;97954.88;5097230;28;20047;-62
2022/02/10 17:58:23;;;;;;;6.78;1.95;;;;;;;5.32;65.57;97953.25;5084399;28;20113;-62
2022/02/10 18:00:53;;;;;;;4.68;1.88;;;;;;;5.27;65.65;97958.41;5085709;28;20105;-62
2022/02/10 18:03:20;;;;;;;4.57;1.80;;;;;;;5.30;65.21;97958.81;5082494;28;20051;-62
2022/02/10 18:06:39;;;;;;;6.03;3.20;;;;;;;5.29;65.36;97967.91;5076070;28;20319;-62
2022/02/10 18:08:41;;;;;;;6.57;2.95;;;;;;;5.17;65.71;97964.16;5077346;28;20052;-62
2022/02/10 18:14:02;;;;;;;5.93;2.85;;;;;;;5.13;65.56;97947.66;5084110;28;20097;-62
2022/02/10 18:19:07;;;;;;;4.47;1.88;;;;;;;5.06;65.62;97947.59;5074693;28;20040;-61
2022/02/10 19:10:18;;;;;;;6.82;3.22;;;;;;;4.36;69.19;97953.06;5089524;28;20048;-65
2022/02/10 19:12:48;;;;;;;11.82;5.35;;;;;;;4.31;69.17;97955.53;5087482;28;20035;-66
2022/02/10 19:15:20;;;;;;;7.70;3.35;;;;;;;4.32;69.19;97946.44;5104680;28;20100;-65
2022/02/10 19:17:48;;;;;;;12.98;6.30;;;;;;;4.26;69.32;97948.91;5067759;28;20080;-61
2022/02/10 19:20:17;;;;;;;6.68;4.07;;;;;;;4.18;69.98;97943.69;5077648;28;20047;-62
2022/02/10 19:22:43;;;;;;;11.05;3.42;;;;;;;4.07;70.66;97941.56;5081180;28;20090;-62
2022/02/10 19:25:12;;;;;;;11.10;4.00;;;;;;;4.16;69.88;97938.53;5074850;28;20426;-65
2022/02/10 19:27:40;;;;;;;8.23;3.17;;;;;;;4.16;69.90;97932.31;5084278;28;20072;-65
2022/02/10 19:30:10;;;;;;;7.07;3.50;;;;;;;4.31;69.78;97934.09;5071057;28;20527;-64
2022/02/10 19:32:40;;;;;;;7.82;3.90;;;;;;;4.38;69.58;97934.94;5092338;28;20093;-64
2022/02/10 19:35:11;;;;;;;7.95;4.07;;;;;;;4.20;69.83;97927.41;5073289;28;20053;-65
2022/02/10 19:37:38;;;;;;;9.20;4.43;;;;;;;4.05;70.68;97928.34;5084301;28;20557;-61
2022/02/10 19:40:05;;;;;;;10.43;5.57;;;;;;;3.97;71.17;97926.66;5079446;28;20035;-65
2022/02/10 19:42:35;;;;;;;10.88;5.10;;;;;;;3.90;71.44;97925.78;5082219;28;20047;-65
2022/02/10 19:45:05;;;;;;;8.75;4.90;;;;;;;3.83;72.00;97919.56;5076873;28;20683;-64
2022/02/10 19:47:35;;;;;;;11.57;5.05;;;;;;;3.55;73.25;97923.03;5084858;28;20040;-62
2022/02/10 19:50:10;;;;;;;12.13;5.95;;;;;;;3.32;73.88;97918.72;5072168;28;20435;-61
2022/02/10 19:52:39;;;;;;;8.88;5.53;;;;;;;3.11;74.73;97918.53;5080079;28;20063;-64
2022/02/10 19:55:09;;;;;;;23.65;10.32;;;;;;;3.05;75.09;97921.09;5079170;28;20564;-65
2022/02/10 19:57:38;;;;;;;22.17;11.98;;;;;;;2.91;75.43;97915.63;5082904;28;20453;-62
2022/02/10 20:00:10;;;;;;;25.83;12.15;;;;;;;2.82;76.11;97917.59;5076982;28;20661;-60
2022/02/10 20:02:36;;;;;;;30.33;16.48;;;;;;;2.88;76.25;97917.84;5079640;28;20037;-60
2022/02/10 20:05:04;;;;;;;32.53;17.30;;;;;;;2.85;76.35;97919.88;5082932;28;20507;-64
2022/02/10 20:07:37;;;;;;;11.30;6.13;;;;;;;2.74;76.41;97917.69;5076155;28;20051;-66
2022/02/10 20:10:08;;;;;;;17.52;10.05;;;;;;;2.60;77.26;97914.03;5085384;28;20051;-65
2022/02/10 20:12:38;;;;;;;14.88;7.43;;;;;;;2.65;76.97;97906.28;5080498;28;20419;-65
2022/02/10 20:15:06;;;;;;;15.07;7.28;;;;;;;2.62;77.34;97905.84;5076037;28;20090;-66
2022/02/10 20:17:32;;;;;;;9.85;5.50;;;;;;;2.64;77.66;97907.28;5076184;28;20040;-64
2022/02/10 20:19:59;;;;;;;11.80;6.60;;;;;;;2.60;78.17;97914.88;5082571;28;20039;-65
2022/02/10 20:22:27;;;;;;;11.63;6.45;;;;;;;2.41;77.86;97916.28;5070819;28;20041;-66
2022/02/10 20:25:07;;;;;;;13.77;8.00;;;;;;;2.40;77.82;97909.25;5065499;28;20045;-65
2022/02/10 20:27:35;;;;;;;8.93;4.60;;;;;;;2.43;78.35;97908.09;5071085;28;20048;-65
2022/02/10 20:30:04;;;;;;;9.32;4.95;;;;;;;2.55;78.11;97905.75;5075412;28;20040;-65
2022/02/10 20:32:31;;;;;;;12.75;5.03;;;;;;;2.40;77.84;97903.09;5077384;28;20060;-64
2022/02/10 20:34:57;;;;;;;9.50;5.63;;;;;;;2.13;79.33;97908.09;5065022;28;20423;-63
2022/02/10 20:37:25;;;;;;;11.52;5.90;;;;;;;2.03;79.66;97897.69;5080361;28;20048;-65
2022/02/10 20:39:52;;;;;;;7.30;4.55;;;;;;;1.98;79.95;97890.22;5083250;28;20052;-65
2022/02/10 20:42:20;;;;;;;7.90;4.55;;;;;;;2.01;80.27;97887.19;5070992;28;20093;-65
2022/02/10 20:44:52;;;;;;;21.10;9.60;;;;;;;2.01;80.33;97881.00;5083605;28;20055;-65
2022/02/10 20:47:21;;;;;;;10.27;5.30;;;;;;;1.84;79.51;97878.50;5066241;28;20532;-62
2022/02/10 20:49:48;;;;;;;30.48;15.43;;;;;;;1.79;80.90;97881.72;5065699;28;20040;-61
2022/02/10 20:52:14;;;;;;;51.50;22.60;;;;;;;1.83;80.62;97878.69;5084458;28;20102;-65
2022/02/10 20:54:42;;;;;;;33.00;16.35;;;;;;;1.74;80.83;97886.78;5083084;28;20443;-65
2022/02/10 20:57:08;;;;;;;34.45;16.85;;;;;;;1.55;81.34;97880.94;5072530;28;20063;-65
2022/02/10 20:59:41;;;;;;;14.75;5.95;;;;;;;1.61;81.80;97883.91;5082727;28;20052;-65
2022/02/10 21:02:12;;;;;;;13.52;7.75;;;;;;;1.67;81.26;97877.84;5076500;28;20054;-66
2022/02/10 21:04:55;;;;;;;20.10;9.80;;;;;;;1.74;81.14;97889.47;5084377;28;20028;-60
2022/02/10 21:07:40;;;;;;;10.05;6.38;;;;;;;2.06;81.57;97892.78;5077303;28;20695;-62
2022/02/10 21:10:12;;;;;;;13.00;6.65;;;;;;;2.13;80.35;97894.75;5084240;28;21406;-65
2022/02/10 21:12:41;;;;;;;11.98;6.40;;;;;;;2.20;79.75;97893.81;5080459;28;20055;-65
2022/02/10 21:15:13;;;;;;;11.68;6.03;;;;;;;2.19;80.14;97891.31;5079984;28;20048;-66
2022/02/10 21:17:39;;;;;;;;;;;;;;;2.25;79.90;97892.41;5080524;28;20040;-65
2022/02/10 21:20:07;;;;;;;14.32;6.07;;;;;;;2.26;79.91;97896.75;5085212;28;19928;-65
2022/02/10 21:22:39;;;;;;;13.93;7.07;;;;;;;2.11;80.27;97884.22;5077161;28;20051;-65
2022/02/10 21:27:45;;;;;;;19.05;8.18;;;;;;;1.88;81.80;97882.47;5072293;28;20048;-66
2022/02/10 21:30:13;;;;;;;17.65;8.65;;;;;;;1.91;81.96;97886.59;5071177;28;20040;-65
2022/02/10 21:32:53;;;;;;;8.95;5.13;;;;;;;2.19;81.35;97883.31;5082467;28;20040;-65
2022/02/10 21:35:29;;;;;;;14.40;6.50;;;;;;;2.32;80.75;97877.31;5084362;28;20040;-66
2022/02/10 21:38:00;;;;;;;13.98;6.95;;;;;;;2.31;80.97;97883.66;5080669;28;20104;-65
2022/02/10 21:48:36;;;;;;;19.00;8.10;;;;;;;2.75;80.43;97863.19;5088012;28;20048;-65
2022/02/10 22:11:00;;;;;;;17.17;8.18;;;;;;;2.86;79.73;97835.13;5041856;28;20059;-62
2022/02/10 22:19:20;;;;;;;;;;;;;;;3.19;79.13;97829.25;5042708;28;20045;-62
2022/02/10 22:21:52;;;;;;;15.02;7.60;;;;;;;3.14;79.55;97831.69;5068521;28;19954;-62
2022/02/10 22:24:21;;;;;;;14.93;8.60;;;;;;;3.11;79.91;97824.03;5084918;28;20040;-62
2022/02/10 22:26:50;;;;;;;16.67;9.13;;;;;;;3.10;79.76;97825.88;5074338;28;20040;-63
2022/02/10 22:29:30;;;;;;;15.18;8.02;;;;;;;3.00;80.47;97825.38;5086436;28;20049;-63
2022/02/10 22:34:35;;;;;;;12.82;7.15;;;;;;;3.15;80.28;97829.81;5079814;28;20044;-63
2022/02/10 22:37:05;;;;;;;11.30;6.03;;;;;;;3.32;79.59;97825.03;5069818;28;20044;-62
2022/02/10 22:39:37;;;;;;;11.13;6.18;;;;;;;3.33;79.20;97824.00;5080976;28;20752;-63
2022/02/10 22:42:04;;;;;;;11.98;6.53;;;;;;;3.25;79.29;97817.75;5078211;28;20052;-62
2022/02/10 22:44:31;;;;;;;15.55;7.60;;;;;;;3.40;79.51;97822.22;5085121;28;20209;-62
2022/02/10 22:47:01;;;;;;;12.30;6.95;;;;;;;3.43;79.73;97821.00;5082162;28;20048;-63
2022/02/10 22:49:28;;;;;;;10.25;6.50;;;;;;;3.38;79.77;97811.69;5082926;28;20044;-62
2022/02/10 22:51:55;;;;;;;9.95;6.07;;;;;;;3.38;80.05;97821.56;5072525;28;20040;-63
2022/02/10 22:54:22;;;;;;;12.20;6.25;;;;;;;3.38;79.96;97822.41;5073845;28;20044;-63
2022/02/10 22:56:49;;;;;;;10.88;6.10;;;;;;;3.41;79.86;97820.34;5081542;28;20037;-63
2022/02/10 22:59:16;;;;;;;12.27;5.85;;;;;;;3.39;79.49;97825.88;5071677;28;20093;-62
2022/02/10 23:01:43;;;;;;;11.27;6.28;;;;;;;3.05;80.80;97814.91;5077571;28;20044;-62
2022/02/10 23:04:09;;;;;;;11.50;6.00;;;;;;;2.95;81.65;97811.75;5082261;28;20047;-63
2022/02/10 23:06:36;;;;;;;11.00;5.65;;;;;;;3.20;81.24;97816.69;5080334;28;20043;-62
2022/02/10 23:11:57;;;;;;;12.02;5.68;;;;;;;3.42;80.71;97811.31;5083292;28;20040;-63
2022/02/10 23:14:25;;;;;;;10.30;5.63;;;;;;;3.32;80.35;97812.47;5076947;28;20269;-63
2022/02/10 23:16:51;;;;;;;10.15;5.53;;;;;;;2.94;82.13;97818.94;5066257;28;20474;-63
2022/02/10 23:19:20;;;;;;;12.95;6.55;;;;;;;2.93;82.68;97814.63;5079288;28;20557;-63
2022/02/10 23:21:46;;;;;;;10.02;5.25;;;;;;;3.03;82.30;97813.47;5066610;28;20040;-62
2022/02/10 23:24:13;;;;;;;10.55;5.93;;;;;;;3.14;82.07;97806.75;5083630;28;20456;-62
2022/02/10 23:26:40;;;;;;;9.02;5.05;;;;;;;3.26;82.21;97813.25;5067313;28;20795;-63
2022/02/10 23:29:06;;;;;;;9.30;5.63;;;;;;;3.30;81.75;97816.34;5063514;28;20128;-62
2022/02/10 23:31:33;;;;;;;10.93;6.43;;;;;;;3.22;81.51;97815.50;5073912;28;20044;-63
2022/02/10 23:34:03;;;;;;;11.18;5.85;;;;;;;3.11;82.14;97824.88;5071141;28;20122;-63
2022/02/10 23:39:12;;;;;;;8.85;5.20;;;;;;;3.31;81.35;97826.06;5080461;28;20074;-63
2022/02/10 23:44:22;;;;;;;9.50;5.47;;;;;;;3.41;81.44;97818.50;5065277;28;20044;-62
2022/02/10 23:46:49;;;;;;;10.52;6.10;;;;;;;3.43;80.95;97823.66;5067435;28;20036;-62
2022/02/10 23:49:19;;;;;;;10.40;4.88;;;;;;;3.72;79.30;97819.94;5066416;28;20044;-62
2022/02/10 23:52:01;;;;;;;8.85;5.38;;;;;;;3.93;78.61;97810.19;5081240;28;20040;-62
2022/02/10 23:54:33;;;;;;;10.98;5.07;;;;;;;4.11;77.49;97808.81;5066567;28;20044;-62
2022/02/10 23:57:06;;;;;;;11.05;4.10;;;;;;;4.25;76.93;97812.38;5076815;28;20044;-63
